sensor_id;sensor_type;location;lat;lon;timestamp;P1;durP1;ratioP1;P2;durP2;ratioP2
71290;SDS011;59073;51.994;4.448;2023-07-13T00:01:30;3.40;;;2.62;;
71290;SDS011;59073;51.994;4.448;2023-07-13T00:03:56;4.15;;;3.13;;
71290;SDS011;59073;51.994;4.448;2023-07-13T00:06:22;4.21;;;3.07;;
71290;SDS011;59073;51.994;4.448;2023-07-13T00:08:48;3.90;;;2.95;;
71290;SDS011;59073;51.994;4.448;2023-07-13T00:11:14;4.14;;;3.16;;
71290;SDS011;59073;51.994;4.448;2023-07-13T00:13:41;3.45;;;2.68;;
71290;SDS011;59073;51.994;4.448;2023-07-13T00:16:09;4.35;;;3.38;;
71290;SDS011;59073;51.994;4.448;2023-07-13T00:18:36;3.25;;;2.54;;
71290;SDS011;59073;51.994;4.448;2023-07-13T00:21:02;3.53;;;2.73;;
71290;SDS011;59073;51.994;4.448;2023-07-13T00:23:32;4.20;;;3.24;;
71290;SDS011;59073;51.994;4.448;2023-07-13T00:25:59;3.60;;;2.76;;
71290;SDS011;59073;51.994;4.448;2023-07-13T00:28:25;3.42;;;2.65;;
71290;SDS011;59073;51.994;4.448;2023-07-13T00:30:51;3.41;;;2.68;;
71290;SDS011;59073;51.994;4.448;2023-07-13T00:33:16;3.85;;;3.00;;
71290;SDS011;59073;51.994;4.448;2023-07-13T00:35:42;2.86;;;2.24;;
71290;SDS011;59073;51.994;4.448;2023-07-13T00:38:09;3.42;;;2.73;;
71290;SDS011;59073;51.994;4.448;2023-07-13T00:40:35;2.80;;;2.29;;
71290;SDS011;59073;51.994;4.448;2023-07-13T00:43:00;3.24;;;2.62;;
71290;SDS011;59073;51.994;4.448;2023-07-13T00:47:51;3.13;;;2.45;;
71290;SDS011;59073;51.994;4.448;2023-07-13T00:50:18;3.08;;;2.39;;
71290;SDS011;59073;51.994;4.448;2023-07-13T00:52:47;3.48;;;2.70;;
71290;SDS011;59073;51.994;4.448;2023-07-13T00:55:17;3.09;;;2.42;;
71290;SDS011;59073;51.994;4.448;2023-07-13T00:57:43;2.84;;;2.19;;
71290;SDS011;59073;51.994;4.448;2023-07-13T01:00:09;3.17;;;2.45;;
71290;SDS011;59073;51.994;4.448;2023-07-13T01:02:37;3.31;;;2.58;;
71290;SDS011;59073;51.994;4.448;2023-07-13T01:05:11;2.37;;;1.89;;
71290;SDS011;59073;51.994;4.448;2023-07-13T01:07:42;2.93;;;2.34;;
71290;SDS011;59073;51.994;4.448;2023-07-13T01:10:10;2.57;;;2.09;;
71290;SDS011;59073;51.994;4.448;2023-07-13T01:12:37;2.52;;;2.03;;
71290;SDS011;59073;51.994;4.448;2023-07-13T01:15:03;2.96;;;2.35;;
71290;SDS011;59073;51.994;4.448;2023-07-13T01:17:29;3.27;;;2.56;;
71290;SDS011;59073;51.994;4.448;2023-07-13T01:19:58;2.69;;;2.14;;
71290;SDS011;59073;51.994;4.448;2023-07-13T01:22:25;3.33;;;2.61;;
71290;SDS011;59073;51.994;4.448;2023-07-13T01:24:52;3.36;;;2.48;;
71290;SDS011;59073;51.994;4.448;2023-07-13T01:27:23;3.28;;;2.41;;
71290;SDS011;59073;51.994;4.448;2023-07-13T01:29:51;2.83;;;2.09;;
71290;SDS011;59073;51.994;4.448;2023-07-13T01:32:19;2.94;;;2.20;;
71290;SDS011;59073;51.994;4.448;2023-07-13T01:34:52;2.60;;;2.00;;
71290;SDS011;59073;51.994;4.448;2023-07-13T01:37:19;2.33;;;1.81;;
71290;SDS011;59073;51.994;4.448;2023-07-13T01:39:45;2.16;;;1.64;;
71290;SDS011;59073;51.994;4.448;2023-07-13T01:42:12;1.99;;;1.53;;
71290;SDS011;59073;51.994;4.448;2023-07-13T01:44:37;1.87;;;1.45;;
71290;SDS011;59073;51.994;4.448;2023-07-13T01:47:03;1.81;;;1.43;;
71290;SDS011;59073;51.994;4.448;2023-07-13T01:49:29;1.78;;;1.42;;
71290;SDS011;59073;51.994;4.448;2023-07-13T01:51:54;1.52;;;1.22;;
71290;SDS011;59073;51.994;4.448;2023-07-13T01:54:20;1.50;;;1.24;;
71290;SDS011;59073;51.994;4.448;2023-07-13T01:56:45;1.17;;;0.99;;
71290;SDS011;59073;51.994;4.448;2023-07-13T01:59:10;1.35;;;1.16;;
71290;SDS011;59073;51.994;4.448;2023-07-13T02:01:36;1.29;;;1.11;;
71290;SDS011;59073;51.994;4.448;2023-07-13T02:04:02;1.18;;;1.03;;
71290;SDS011;59073;51.994;4.448;2023-07-13T02:06:27;1.09;;;0.94;;
71290;SDS011;59073;51.994;4.448;2023-07-13T02:08:53;1.09;;;0.94;;
71290;SDS011;59073;51.994;4.448;2023-07-13T02:11:18;0.88;;;0.77;;
71290;SDS011;59073;51.994;4.448;2023-07-13T02:13:44;1.52;;;1.34;;
71290;SDS011;59073;51.994;4.448;2023-07-13T02:16:09;1.12;;;0.98;;
71290;SDS011;59073;51.994;4.448;2023-07-13T02:18:35;1.25;;;1.09;;
71290;SDS011;59073;51.994;4.448;2023-07-13T02:21:00;1.38;;;1.17;;
71290;SDS011;59073;51.994;4.448;2023-07-13T02:23:26;1.68;;;1.44;;
71290;SDS011;59073;51.994;4.448;2023-07-13T02:25:55;1.50;;;1.28;;
71290;SDS011;59073;51.994;4.448;2023-07-13T02:28:22;1.62;;;1.38;;
71290;SDS011;59073;51.994;4.448;2023-07-13T02:30:47;2.02;;;1.68;;
71290;SDS011;59073;51.994;4.448;2023-07-13T02:33:13;2.33;;;1.87;;
71290;SDS011;59073;51.994;4.448;2023-07-13T02:35:38;2.50;;;1.98;;
71290;SDS011;59073;51.994;4.448;2023-07-13T02:38:04;2.55;;;2.00;;
71290;SDS011;59073;51.994;4.448;2023-07-13T02:40:29;2.19;;;1.77;;
71290;SDS011;59073;51.994;4.448;2023-07-13T02:42:58;2.42;;;1.97;;
71290;SDS011;59073;51.994;4.448;2023-07-13T02:45:24;2.48;;;2.01;;
71290;SDS011;59073;51.994;4.448;2023-07-13T02:47:49;2.16;;;1.71;;
71290;SDS011;59073;51.994;4.448;2023-07-13T02:50:15;2.58;;;2.01;;
71290;SDS011;59073;51.994;4.448;2023-07-13T02:52:40;2.94;;;2.30;;
71290;SDS011;59073;51.994;4.448;2023-07-13T02:55:05;3.17;;;2.49;;
71290;SDS011;59073;51.994;4.448;2023-07-13T02:57:31;2.96;;;2.29;;
71290;SDS011;59073;51.994;4.448;2023-07-13T02:59:58;3.16;;;2.42;;
71290;SDS011;59073;51.994;4.448;2023-07-13T03:02:24;3.41;;;2.62;;
71290;SDS011;59073;51.994;4.448;2023-07-13T03:04:50;3.66;;;2.74;;
71290;SDS011;59073;51.994;4.448;2023-07-13T03:07:15;3.45;;;2.63;;
71290;SDS011;59073;51.994;4.448;2023-07-13T03:09:41;3.92;;;2.97;;
71290;SDS011;59073;51.994;4.448;2023-07-13T03:12:06;3.65;;;2.74;;
71290;SDS011;59073;51.994;4.448;2023-07-13T03:14:32;3.58;;;2.67;;
71290;SDS011;59073;51.994;4.448;2023-07-13T03:16:57;3.57;;;2.73;;
71290;SDS011;59073;51.994;4.448;2023-07-13T03:19:23;3.57;;;2.72;;
71290;SDS011;59073;51.994;4.448;2023-07-13T03:21:49;3.13;;;2.39;;
71290;SDS011;59073;51.994;4.448;2023-07-13T03:24:14;3.23;;;2.53;;
71290;SDS011;59073;51.994;4.448;2023-07-13T03:26:40;3.05;;;2.44;;
71290;SDS011;59073;51.994;4.448;2023-07-13T03:29:06;2.81;;;2.31;;
71290;SDS011;59073;51.994;4.448;2023-07-13T03:31:32;3.08;;;2.48;;
71290;SDS011;59073;51.994;4.448;2023-07-13T03:34:00;3.04;;;2.43;;
71290;SDS011;59073;51.994;4.448;2023-07-13T03:36:27;3.13;;;2.48;;
71290;SDS011;59073;51.994;4.448;2023-07-13T03:38:55;3.27;;;2.54;;
71290;SDS011;59073;51.994;4.448;2023-07-13T03:41:23;3.18;;;2.51;;
71290;SDS011;59073;51.994;4.448;2023-07-13T03:43:50;2.63;;;2.09;;
71290;SDS011;59073;51.994;4.448;2023-07-13T03:46:16;3.00;;;2.38;;
71290;SDS011;59073;51.994;4.448;2023-07-13T03:48:43;2.83;;;2.29;;
71290;SDS011;59073;51.994;4.448;2023-07-13T03:51:11;2.85;;;2.35;;
71290;SDS011;59073;51.994;4.448;2023-07-13T03:53:40;2.64;;;2.21;;
71290;SDS011;59073;51.994;4.448;2023-07-13T03:56:07;2.72;;;2.27;;
71290;SDS011;59073;51.994;4.448;2023-07-13T03:58:34;2.82;;;2.33;;
71290;SDS011;59073;51.994;4.448;2023-07-13T04:01:03;2.68;;;2.16;;
71290;SDS011;59073;51.994;4.448;2023-07-13T04:03:31;2.82;;;2.25;;
71290;SDS011;59073;51.994;4.448;2023-07-13T04:06:01;3.42;;;2.66;;
71290;SDS011;59073;51.994;4.448;2023-07-13T04:08:30;3.11;;;2.44;;
71290;SDS011;59073;51.994;4.448;2023-07-13T04:10:57;2.95;;;2.29;;
71290;SDS011;59073;51.994;4.448;2023-07-13T04:13:24;3.10;;;2.37;;
71290;SDS011;59073;51.994;4.448;2023-07-13T04:15:51;2.83;;;2.21;;
71290;SDS011;59073;51.994;4.448;2023-07-13T04:18:17;2.98;;;2.35;;
71290;SDS011;59073;51.994;4.448;2023-07-13T04:20:43;2.53;;;2.01;;
71290;SDS011;59073;51.994;4.448;2023-07-13T04:23:08;2.62;;;2.09;;
71290;SDS011;59073;51.994;4.448;2023-07-13T04:25:34;2.70;;;2.14;;
71290;SDS011;59073;51.994;4.448;2023-07-13T04:28:00;2.70;;;2.16;;
71290;SDS011;59073;51.994;4.448;2023-07-13T04:30:26;3.43;;;2.72;;
71290;SDS011;59073;51.994;4.448;2023-07-13T04:32:51;2.91;;;2.36;;
71290;SDS011;59073;51.994;4.448;2023-07-13T04:35:20;2.57;;;2.10;;
71290;SDS011;59073;51.994;4.448;2023-07-13T04:37:47;2.72;;;2.24;;
71290;SDS011;59073;51.994;4.448;2023-07-13T04:40:15;2.49;;;2.03;;
71290;SDS011;59073;51.994;4.448;2023-07-13T04:42:45;3.21;;;2.60;;
71290;SDS011;59073;51.994;4.448;2023-07-13T04:45:12;2.90;;;2.33;;
71290;SDS011;59073;51.994;4.448;2023-07-13T04:47:39;2.90;;;2.36;;
71290;SDS011;59073;51.994;4.448;2023-07-13T04:50:05;2.49;;;2.06;;
71290;SDS011;59073;51.994;4.448;2023-07-13T04:52:32;2.54;;;2.08;;
71290;SDS011;59073;51.994;4.448;2023-07-13T04:54:58;2.19;;;1.83;;
71290;SDS011;59073;51.994;4.448;2023-07-13T04:57:24;2.17;;;1.83;;
71290;SDS011;59073;51.994;4.448;2023-07-13T04:59:50;2.29;;;1.88;;
71290;SDS011;59073;51.994;4.448;2023-07-13T05:02:15;2.05;;;1.71;;
71290;SDS011;59073;51.994;4.448;2023-07-13T05:04:41;1.86;;;1.60;;
71290;SDS011;59073;51.994;4.448;2023-07-13T05:07:06;1.86;;;1.62;;
71290;SDS011;59073;51.994;4.448;2023-07-13T05:09:32;1.92;;;1.66;;
71290;SDS011;59073;51.994;4.448;2023-07-13T05:11:57;2.06;;;1.81;;
71290;SDS011;59073;51.994;4.448;2023-07-13T05:14:23;1.81;;;1.61;;
71290;SDS011;59073;51.994;4.448;2023-07-13T05:16:48;1.97;;;1.73;;
71290;SDS011;59073;51.994;4.448;2023-07-13T05:19:14;1.97;;;1.73;;
71290;SDS011;59073;51.994;4.448;2023-07-13T05:21:39;1.81;;;1.61;;
71290;SDS011;59073;51.994;4.448;2023-07-13T05:24:06;1.81;;;1.62;;
71290;SDS011;59073;51.994;4.448;2023-07-13T05:26:31;1.83;;;1.64;;
71290;SDS011;59073;51.994;4.448;2023-07-13T05:28:57;1.78;;;1.62;;
71290;SDS011;59073;51.994;4.448;2023-07-13T05:31:22;1.99;;;1.83;;
71290;SDS011;59073;51.994;4.448;2023-07-13T05:33:48;2.03;;;1.84;;
71290;SDS011;59073;51.994;4.448;2023-07-13T05:36:13;1.96;;;1.79;;
71290;SDS011;59073;51.994;4.448;2023-07-13T05:38:39;1.77;;;1.63;;
71290;SDS011;59073;51.994;4.448;2023-07-13T05:41:05;1.86;;;1.74;;
71290;SDS011;59073;51.994;4.448;2023-07-13T05:43:31;1.63;;;1.53;;
71290;SDS011;59073;51.994;4.448;2023-07-13T05:45:58;1.84;;;1.74;;
71290;SDS011;59073;51.994;4.448;2023-07-13T05:48:23;2.00;;;1.87;;
71290;SDS011;59073;51.994;4.448;2023-07-13T05:50:49;1.60;;;1.51;;
71290;SDS011;59073;51.994;4.448;2023-07-13T05:53:15;1.53;;;1.46;;
71290;SDS011;59073;51.994;4.448;2023-07-13T05:55:44;1.70;;;1.62;;
71290;SDS011;59073;51.994;4.448;2023-07-13T05:58:16;1.96;;;1.85;;
71290;SDS011;59073;51.994;4.448;2023-07-13T06:00:42;1.66;;;1.57;;
71290;SDS011;59073;51.994;4.448;2023-07-13T06:03:08;2.10;;;2.01;;
71290;SDS011;59073;51.994;4.448;2023-07-13T06:05:34;1.82;;;1.75;;
71290;SDS011;59073;51.994;4.448;2023-07-13T06:08:02;1.69;;;1.61;;
71290;SDS011;59073;51.994;4.448;2023-07-13T06:10:27;2.27;;;2.17;;
71290;SDS011;59073;51.994;4.448;2023-07-13T06:12:53;1.77;;;1.68;;
71290;SDS011;59073;51.994;4.448;2023-07-13T06:15:18;2.01;;;1.88;;
71290;SDS011;59073;51.994;4.448;2023-07-13T06:17:44;1.94;;;1.82;;
71290;SDS011;59073;51.994;4.448;2023-07-13T06:20:10;1.88;;;1.76;;
71290;SDS011;59073;51.994;4.448;2023-07-13T06:22:35;2.00;;;1.88;;
71290;SDS011;59073;51.994;4.448;2023-07-13T06:25:01;1.68;;;1.57;;
71290;SDS011;59073;51.994;4.448;2023-07-13T06:27:27;1.59;;;1.52;;
71290;SDS011;59073;51.994;4.448;2023-07-13T06:29:52;1.63;;;1.58;;
71290;SDS011;59073;51.994;4.448;2023-07-13T06:32:18;1.76;;;1.69;;
71290;SDS011;59073;51.994;4.448;2023-07-13T06:34:43;1.85;;;1.77;;
71290;SDS011;59073;51.994;4.448;2023-07-13T06:37:09;1.62;;;1.55;;
71290;SDS011;59073;51.994;4.448;2023-07-13T06:39:35;1.62;;;1.56;;
71290;SDS011;59073;51.994;4.448;2023-07-13T06:42:01;1.86;;;1.76;;
71290;SDS011;59073;51.994;4.448;2023-07-13T06:44:26;1.67;;;1.58;;
71290;SDS011;59073;51.994;4.448;2023-07-13T06:46:52;1.77;;;1.67;;
71290;SDS011;59073;51.994;4.448;2023-07-13T06:49:18;1.66;;;1.59;;
71290;SDS011;59073;51.994;4.448;2023-07-13T06:51:43;1.59;;;1.51;;
71290;SDS011;59073;51.994;4.448;2023-07-13T06:54:08;1.53;;;1.44;;
71290;SDS011;59073;51.994;4.448;2023-07-13T06:56:34;1.76;;;1.66;;
71290;SDS011;59073;51.994;4.448;2023-07-13T06:58:59;1.63;;;1.53;;
71290;SDS011;59073;51.994;4.448;2023-07-13T07:01:25;1.43;;;1.34;;
71290;SDS011;59073;51.994;4.448;2023-07-13T07:03:50;1.64;;;1.54;;
71290;SDS011;59073;51.994;4.448;2023-07-13T07:06:17;1.52;;;1.44;;
71290;SDS011;59073;51.994;4.448;2023-07-13T07:08:44;1.58;;;1.49;;
71290;SDS011;59073;51.994;4.448;2023-07-13T07:11:14;1.80;;;1.69;;
71290;SDS011;59073;51.994;4.448;2023-07-13T07:13:42;1.64;;;1.55;;
71290;SDS011;59073;51.994;4.448;2023-07-13T07:16:08;1.56;;;1.50;;
71290;SDS011;59073;51.994;4.448;2023-07-13T07:18:34;1.43;;;1.37;;
71290;SDS011;59073;51.994;4.448;2023-07-13T07:20:59;1.57;;;1.52;;
71290;SDS011;59073;51.994;4.448;2023-07-13T07:23:25;1.84;;;1.79;;
71290;SDS011;59073;51.994;4.448;2023-07-13T07:25:50;1.44;;;1.40;;
71290;SDS011;59073;51.994;4.448;2023-07-13T07:28:17;1.48;;;1.44;;
71290;SDS011;59073;51.994;4.448;2023-07-13T07:30:44;1.80;;;1.73;;
71290;SDS011;59073;51.994;4.448;2023-07-13T07:33:10;1.66;;;1.58;;
71290;SDS011;59073;51.994;4.448;2023-07-13T07:35:36;1.82;;;1.70;;
71290;SDS011;59073;51.994;4.448;2023-07-13T07:38:02;1.80;;;1.68;;
71290;SDS011;59073;51.994;4.448;2023-07-13T07:40:28;1.83;;;1.73;;
71290;SDS011;59073;51.994;4.448;2023-07-13T07:42:54;1.59;;;1.46;;
71290;SDS011;59073;51.994;4.448;2023-07-13T07:45:19;1.49;;;1.37;;
71290;SDS011;59073;51.994;4.448;2023-07-13T07:47:46;1.94;;;1.80;;
71290;SDS011;59073;51.994;4.448;2023-07-13T07:50:12;2.00;;;1.83;;
71290;SDS011;59073;51.994;4.448;2023-07-13T07:52:38;1.77;;;1.65;;
71290;SDS011;59073;51.994;4.448;2023-07-13T07:55:04;1.94;;;1.81;;
71290;SDS011;59073;51.994;4.448;2023-07-13T07:57:32;1.72;;;1.63;;
71290;SDS011;59073;51.994;4.448;2023-07-13T07:59:57;1.65;;;1.57;;
71290;SDS011;59073;51.994;4.448;2023-07-13T08:02:24;1.94;;;1.83;;
71290;SDS011;59073;51.994;4.448;2023-07-13T08:04:50;2.01;;;1.91;;
71290;SDS011;59073;51.994;4.448;2023-07-13T08:07:16;1.71;;;1.62;;
71290;SDS011;59073;51.994;4.448;2023-07-13T08:09:42;1.50;;;1.45;;
71290;SDS011;59073;51.994;4.448;2023-07-13T08:12:08;1.38;;;1.36;;
71290;SDS011;59073;51.994;4.448;2023-07-13T08:14:33;1.63;;;1.62;;
71290;SDS011;59073;51.994;4.448;2023-07-13T08:16:59;1.37;;;1.34;;
71290;SDS011;59073;51.994;4.448;2023-07-13T08:19:24;1.52;;;1.49;;
71290;SDS011;59073;51.994;4.448;2023-07-13T08:21:50;1.82;;;1.78;;
71290;SDS011;59073;51.994;4.448;2023-07-13T08:24:15;2.03;;;1.97;;
71290;SDS011;59073;51.994;4.448;2023-07-13T08:26:43;2.01;;;1.96;;
71290;SDS011;59073;51.994;4.448;2023-07-13T08:29:11;1.87;;;1.83;;
71290;SDS011;59073;51.994;4.448;2023-07-13T08:31:36;1.70;;;1.69;;
71290;SDS011;59073;51.994;4.448;2023-07-13T08:34:02;1.57;;;1.57;;
71290;SDS011;59073;51.994;4.448;2023-07-13T08:36:28;1.42;;;1.42;;
71290;SDS011;59073;51.994;4.448;2023-07-13T08:38:54;1.65;;;1.65;;
71290;SDS011;59073;51.994;4.448;2023-07-13T08:41:20;1.68;;;1.68;;
71290;SDS011;59073;51.994;4.448;2023-07-13T08:43:47;1.65;;;1.63;;
71290;SDS011;59073;51.994;4.448;2023-07-13T08:46:24;1.60;;;1.59;;
71290;SDS011;59073;51.994;4.448;2023-07-13T08:49:02;1.87;;;1.86;;
71290;SDS011;59073;51.994;4.448;2023-07-13T08:54:11;1.76;;;1.72;;
71290;SDS011;59073;51.994;4.448;2023-07-13T08:56:59;1.93;;;1.90;;
71290;SDS011;59073;51.994;4.448;2023-07-13T08:59:35;1.89;;;1.88;;
71290;SDS011;59073;51.994;4.448;2023-07-13T09:02:05;1.93;;;1.93;;
71290;SDS011;59073;51.994;4.448;2023-07-13T09:05:13;1.73;;;1.73;;
71290;SDS011;59073;51.994;4.448;2023-07-13T09:10:46;1.61;;;1.60;;
71290;SDS011;59073;51.994;4.448;2023-07-13T09:13:30;2.03;;;1.98;;
71290;SDS011;59073;51.994;4.448;2023-07-13T09:16:05;1.78;;;1.73;;
71290;SDS011;59073;51.994;4.448;2023-07-13T09:21:34;1.73;;;1.70;;
71290;SDS011;59073;51.994;4.448;2023-07-13T09:24:41;1.86;;;1.82;;
71290;SDS011;59073;51.994;4.448;2023-07-13T09:27:05;1.26;;;1.24;;
71290;SDS011;59073;51.994;4.448;2023-07-13T09:29:48;1.33;;;1.31;;
71290;SDS011;59073;51.994;4.448;2023-07-13T09:32:22;1.40;;;1.38;;
71290;SDS011;59073;51.994;4.448;2023-07-13T09:34:52;1.81;;;1.78;;
71290;SDS011;59073;51.994;4.448;2023-07-13T09:37:23;1.63;;;1.60;;
71290;SDS011;59073;51.994;4.448;2023-07-13T09:39:56;1.50;;;1.47;;
71290;SDS011;59073;51.994;4.448;2023-07-13T09:42:26;1.58;;;1.55;;
71290;SDS011;59073;51.994;4.448;2023-07-13T09:44:54;1.89;;;1.85;;
71290;SDS011;59073;51.994;4.448;2023-07-13T09:50:03;1.69;;;1.69;;
71290;SDS011;59073;51.994;4.448;2023-07-13T09:52:42;1.83;;;1.83;;
71290;SDS011;59073;51.994;4.448;2023-07-13T09:58:13;1.65;;;1.62;;
71290;SDS011;59073;51.994;4.448;2023-07-13T10:00:40;1.78;;;1.78;;
71290;SDS011;59073;51.994;4.448;2023-07-13T10:03:18;1.72;;;1.72;;
71290;SDS011;59073;51.994;4.448;2023-07-13T10:05:47;1.93;;;1.93;;
71290;SDS011;59073;51.994;4.448;2023-07-13T10:08:23;1.80;;;1.80;;
71290;SDS011;59073;51.994;4.448;2023-07-13T10:11:08;1.92;;;1.92;;
71290;SDS011;59073;51.994;4.448;2023-07-13T10:13:45;1.67;;;1.67;;
71290;SDS011;59073;51.994;4.448;2023-07-13T10:16:14;1.84;;;1.83;;
71290;SDS011;59073;51.994;4.448;2023-07-13T10:18:46;1.98;;;1.94;;
71290;SDS011;59073;51.994;4.448;2023-07-13T10:21:20;1.77;;;1.76;;
71290;SDS011;59073;51.994;4.448;2023-07-13T10:23:50;1.79;;;1.77;;
71290;SDS011;59073;51.994;4.448;2023-07-13T10:26:23;1.82;;;1.82;;
71290;SDS011;59073;51.994;4.448;2023-07-13T10:28:55;1.67;;;1.67;;
71290;SDS011;59073;51.994;4.448;2023-07-13T10:31:24;1.58;;;1.58;;
71290;SDS011;59073;51.994;4.448;2023-07-13T10:33:50;1.71;;;1.71;;
71290;SDS011;59073;51.994;4.448;2023-07-13T10:38:56;1.61;;;1.61;;
71290;SDS011;59073;51.994;4.448;2023-07-13T10:41:26;1.75;;;1.75;;
71290;SDS011;59073;51.994;4.448;2023-07-13T10:43:56;1.67;;;1.67;;
71290;SDS011;59073;51.994;4.448;2023-07-13T10:46:25;1.59;;;1.59;;
71290;SDS011;59073;51.994;4.448;2023-07-13T10:49:00;1.32;;;1.32;;
71290;SDS011;59073;51.994;4.448;2023-07-13T10:51:29;1.30;;;1.30;;
71290;SDS011;59073;51.994;4.448;2023-07-13T10:54:17;1.62;;;1.62;;
71290;SDS011;59073;51.994;4.448;2023-07-13T10:56:52;1.96;;;1.96;;
71290;SDS011;59073;51.994;4.448;2023-07-13T10:59:38;1.68;;;1.68;;
71290;SDS011;59073;51.994;4.448;2023-07-13T11:04:47;1.95;;;1.94;;
71290;SDS011;59073;51.994;4.448;2023-07-13T11:07:21;1.60;;;1.59;;
71290;SDS011;59073;51.994;4.448;2023-07-13T11:09:51;1.56;;;1.55;;
71290;SDS011;59073;51.994;4.448;2023-07-13T11:25:41;1.44;;;1.44;;
71290;SDS011;59073;51.994;4.448;2023-07-13T11:30:36;1.63;;;1.63;;
71290;SDS011;59073;51.994;4.448;2023-07-13T11:33:25;1.48;;;1.48;;
71290;SDS011;59073;51.994;4.448;2023-07-13T11:41:07;1.69;;;1.69;;
71290;SDS011;59073;51.994;4.448;2023-07-13T11:43:43;1.75;;;1.75;;
71290;SDS011;59073;51.994;4.448;2023-07-13T11:46:24;1.78;;;1.78;;
71290;SDS011;59073;51.994;4.448;2023-07-13T11:48:51;1.64;;;1.64;;
71290;SDS011;59073;51.994;4.448;2023-07-13T11:51:22;1.63;;;1.63;;
71290;SDS011;59073;51.994;4.448;2023-07-13T11:53:54;1.58;;;1.58;;
71290;SDS011;59073;51.994;4.448;2023-07-13T11:56:23;1.42;;;1.42;;
71290;SDS011;59073;51.994;4.448;2023-07-13T11:58:51;1.52;;;1.52;;
71290;SDS011;59073;51.994;4.448;2023-07-13T12:01:29;1.58;;;1.58;;
71290;SDS011;59073;51.994;4.448;2023-07-13T12:04:01;1.49;;;1.49;;
71290;SDS011;59073;51.994;4.448;2023-07-13T12:06:29;1.69;;;1.69;;
71290;SDS011;59073;51.994;4.448;2023-07-13T12:09:00;1.69;;;1.69;;
71290;SDS011;59073;51.994;4.448;2023-07-13T12:11:28;1.49;;;1.49;;
71290;SDS011;59073;51.994;4.448;2023-07-13T12:13:55;1.44;;;1.44;;
71290;SDS011;59073;51.994;4.448;2023-07-13T12:16:31;1.74;;;1.74;;
71290;SDS011;59073;51.994;4.448;2023-07-13T12:18:59;1.43;;;1.43;;
71290;SDS011;59073;51.994;4.448;2023-07-13T12:21:29;1.66;;;1.66;;
71290;SDS011;59073;51.994;4.448;2023-07-13T12:23:57;1.62;;;1.62;;
71290;SDS011;59073;51.994;4.448;2023-07-13T12:26:24;1.29;;;1.29;;
71290;SDS011;59073;51.994;4.448;2023-07-13T12:28:52;1.45;;;1.45;;
71290;SDS011;59073;51.994;4.448;2023-07-13T12:31:23;1.51;;;1.51;;
71290;SDS011;59073;51.994;4.448;2023-07-13T12:34:09;1.27;;;1.27;;
71290;SDS011;59073;51.994;4.448;2023-07-13T12:37:21;1.26;;;1.26;;
71290;SDS011;59073;51.994;4.448;2023-07-13T12:39:34;1.38;;;1.38;;
71290;SDS011;59073;51.994;4.448;2023-07-13T12:44:56;1.30;;;1.30;;
71290;SDS011;59073;51.994;4.448;2023-07-13T12:47:28;1.25;;;1.24;;
71290;SDS011;59073;51.994;4.448;2023-07-13T12:49:55;1.19;;;1.19;;
71290;SDS011;59073;51.994;4.448;2023-07-13T12:52:28;1.27;;;1.27;;
71290;SDS011;59073;51.994;4.448;2023-07-13T12:55:09;1.49;;;1.49;;
71290;SDS011;59073;51.994;4.448;2023-07-13T12:57:40;1.17;;;1.17;;
71290;SDS011;59073;51.994;4.448;2023-07-13T13:00:23;1.41;;;1.39;;
71290;SDS011;59073;51.994;4.448;2023-07-13T13:02:53;1.44;;;1.41;;
71290;SDS011;59073;51.994;4.448;2023-07-13T13:05:21;1.14;;;1.11;;
71290;SDS011;59073;51.994;4.448;2023-07-13T13:07:49;1.18;;;1.16;;
71290;SDS011;59073;51.994;4.448;2023-07-13T13:10:14;0.94;;;0.94;;
71290;SDS011;59073;51.994;4.448;2023-07-13T13:12:41;1.21;;;1.21;;
71290;SDS011;59073;51.994;4.448;2023-07-13T13:15:10;1.10;;;1.10;;
71290;SDS011;59073;51.994;4.448;2023-07-13T13:17:39;1.39;;;1.39;;
71290;SDS011;59073;51.994;4.448;2023-07-13T13:20:13;1.26;;;1.26;;
71290;SDS011;59073;51.994;4.448;2023-07-13T13:22:41;1.21;;;1.21;;
71290;SDS011;59073;51.994;4.448;2023-07-13T13:25:09;1.02;;;1.02;;
71290;SDS011;59073;51.994;4.448;2023-07-13T13:27:36;1.04;;;1.04;;
71290;SDS011;59073;51.994;4.448;2023-07-13T13:30:02;1.13;;;1.13;;
71290;SDS011;59073;51.994;4.448;2023-07-13T13:32:28;1.15;;;1.15;;
71290;SDS011;59073;51.994;4.448;2023-07-13T13:34:53;1.45;;;1.45;;
71290;SDS011;59073;51.994;4.448;2023-07-13T13:37:20;1.06;;;1.06;;
71290;SDS011;59073;51.994;4.448;2023-07-13T13:39:47;1.27;;;1.27;;
71290;SDS011;59073;51.994;4.448;2023-07-13T13:42:14;1.01;;;1.00;;
71290;SDS011;59073;51.994;4.448;2023-07-13T13:44:40;0.87;;;0.86;;
71290;SDS011;59073;51.994;4.448;2023-07-13T13:50:27;1.04;;;1.03;;
71290;SDS011;59073;51.994;4.448;2023-07-13T13:52:50;1.07;;;1.07;;
71290;SDS011;59073;51.994;4.448;2023-07-13T13:55:18;1.15;;;1.15;;
71290;SDS011;59073;51.994;4.448;2023-07-13T13:57:47;0.92;;;0.92;;
71290;SDS011;59073;51.994;4.448;2023-07-13T14:00:13;1.17;;;1.16;;
71290;SDS011;59073;51.994;4.448;2023-07-13T14:02:42;1.12;;;1.12;;
71290;SDS011;59073;51.994;4.448;2023-07-13T14:05:18;1.19;;;1.19;;
71290;SDS011;59073;51.994;4.448;2023-07-13T14:07:47;1.14;;;1.13;;
71290;SDS011;59073;51.994;4.448;2023-07-13T14:10:16;1.12;;;1.10;;
71290;SDS011;59073;51.994;4.448;2023-07-13T14:12:47;0.98;;;0.96;;
71290;SDS011;59073;51.994;4.448;2023-07-13T14:15:23;1.09;;;1.06;;
71290;SDS011;59073;51.994;4.448;2023-07-13T14:17:50;1.09;;;1.07;;
71290;SDS011;59073;51.994;4.448;2023-07-13T14:20:17;1.16;;;1.13;;
71290;SDS011;59073;51.994;4.448;2023-07-13T14:22:45;1.00;;;0.98;;
71290;SDS011;59073;51.994;4.448;2023-07-13T14:25:11;1.19;;;1.19;;
71290;SDS011;59073;51.994;4.448;2023-07-13T14:27:38;1.05;;;1.05;;
71290;SDS011;59073;51.994;4.448;2023-07-13T14:30:12;1.17;;;1.17;;
71290;SDS011;59073;51.994;4.448;2023-07-13T14:32:41;1.09;;;1.09;;
71290;SDS011;59073;51.994;4.448;2023-07-13T14:35:08;1.07;;;1.07;;
71290;SDS011;59073;51.994;4.448;2023-07-13T14:37:39;1.32;;;1.32;;
71290;SDS011;59073;51.994;4.448;2023-07-13T14:40:15;1.13;;;1.13;;
71290;SDS011;59073;51.994;4.448;2023-07-13T14:42:44;1.23;;;1.23;;
71290;SDS011;59073;51.994;4.448;2023-07-13T14:45:13;1.35;;;1.34;;
71290;SDS011;59073;51.994;4.448;2023-07-13T14:47:40;1.36;;;1.36;;
71290;SDS011;59073;51.994;4.448;2023-07-13T14:50:17;1.32;;;1.32;;
71290;SDS011;59073;51.994;4.448;2023-07-13T14:52:45;1.40;;;1.40;;
71290;SDS011;59073;51.994;4.448;2023-07-13T14:55:13;1.37;;;1.37;;
71290;SDS011;59073;51.994;4.448;2023-07-13T14:57:42;1.18;;;1.17;;
71290;SDS011;59073;51.994;4.448;2023-07-13T15:02:44;1.21;;;1.20;;
71290;SDS011;59073;51.994;4.448;2023-07-13T15:05:20;1.33;;;1.33;;
71290;SDS011;59073;51.994;4.448;2023-07-13T15:07:50;1.16;;;1.13;;
71290;SDS011;59073;51.994;4.448;2023-07-13T15:12:47;1.02;;;1.00;;
71290;SDS011;59073;51.994;4.448;2023-07-13T15:15:13;1.20;;;1.17;;
71290;SDS011;59073;51.994;4.448;2023-07-13T15:17:43;1.08;;;1.06;;
71290;SDS011;59073;51.994;4.448;2023-07-13T15:22:53;1.38;;;1.35;;
71290;SDS011;59073;51.994;4.448;2023-07-13T15:25:20;1.31;;;1.28;;
71290;SDS011;59073;51.994;4.448;2023-07-13T15:27:54;1.25;;;1.22;;
71290;SDS011;59073;51.994;4.448;2023-07-13T15:30:21;1.19;;;1.17;;
71290;SDS011;59073;51.994;4.448;2023-07-13T15:32:47;1.47;;;1.44;;
71290;SDS011;59073;51.994;4.448;2023-07-13T15:35:17;1.16;;;1.11;;
71290;SDS011;59073;51.994;4.448;2023-07-13T15:37:46;1.35;;;1.30;;
71290;SDS011;59073;51.994;4.448;2023-07-13T15:40:12;1.38;;;1.33;;
71290;SDS011;59073;51.994;4.448;2023-07-13T15:42:39;1.29;;;1.25;;
71290;SDS011;59073;51.994;4.448;2023-07-13T15:45:23;1.37;;;1.34;;
71290;SDS011;59073;51.994;4.448;2023-07-13T15:47:53;1.45;;;1.42;;
71290;SDS011;59073;51.994;4.448;2023-07-13T15:50:20;1.38;;;1.36;;
71290;SDS011;59073;51.994;4.448;2023-07-13T15:52:48;1.20;;;1.20;;